sensor_id;sensor_type;location;lat;lon;timestamp;temperature;humidity
5334;DHT22;2689;50.954;7.116;2024-02-21T00:34:56;9.90;99.90
5334;DHT22;2689;50.954;7.116;2024-02-21T00:37:23;10.00;99.90
5334;DHT22;2689;50.954;7.116;2024-02-21T00:39:49;9.90;99.90
5334;DHT22;2689;50.954;7.116;2024-02-21T00:42:16;9.90;99.90
5334;DHT22;2689;50.954;7.116;2024-02-21T00:44:43;9.80;99.90
5334;DHT22;2689;50.954;7.116;2024-02-21T00:47:10;9.80;99.90
5334;DHT22;2689;50.954;7.116;2024-02-21T00:49:36;9.80;99.90
5334;DHT22;2689;50.954;7.116;2024-02-21T00:52:05;9.80;99.90
5334;DHT22;2689;50.954;7.116;2024-02-21T00:54:31;9.90;99.90
5334;DHT22;2689;50.954;7.116;2024-02-21T00:56:58;9.90;99.90
5334;DHT22;2689;50.954;7.116;2024-02-21T00:59:25;9.90;99.90
5334;DHT22;2689;50.954;7.116;2024-02-21T01:01:52;9.80;99.90
5334;DHT22;2689;50.954;7.116;2024-02-21T01:04:18;9.80;99.90
5334;DHT22;2689;50.954;7.116;2024-02-21T01:06:45;9.70;99.90
5334;DHT22;2689;50.954;7.116;2024-02-21T01:09:13;9.70;99.90
5334;DHT22;2689;50.954;7.116;2024-02-21T01:11:40;9.70;99.90
5334;DHT22;2689;50.954;7.116;2024-02-21T01:14:07;9.60;99.90
5334;DHT22;2689;50.954;7.116;2024-02-21T01:16:34;9.60;99.90
5334;DHT22;2689;50.954;7.116;2024-02-21T01:19:00;9.70;99.90
5334;DHT22;2689;50.954;7.116;2024-02-21T01:21:27;9.70;99.90
5334;DHT22;2689;50.954;7.116;2024-02-21T01:23:54;9.70;99.90
5334;DHT22;2689;50.954;7.116;2024-02-21T01:26:22;9.70;99.90
5334;DHT22;2689;50.954;7.116;2024-02-21T01:28:48;9.80;99.90
5334;DHT22;2689;50.954;7.116;2024-02-21T01:31:15;9.70;99.90
5334;DHT22;2689;50.954;7.116;2024-02-21T01:33:42;9.70;99.90
5334;DHT22;2689;50.954;7.116;2024-02-21T01:36:08;9.80;99.90
5334;DHT22;2689;50.954;7.116;2024-02-21T01:38:35;9.80;99.90
5334;DHT22;2689;50.954;7.116;2024-02-21T01:41:03;9.80;99.90
5334;DHT22;2689;50.954;7.116;2024-02-21T01:43:31;9.70;99.90
5334;DHT22;2689;50.954;7.116;2024-02-21T01:45:58;9.70;99.90
5334;DHT22;2689;50.954;7.116;2024-02-21T01:48:25;9.70;99.90
5334;DHT22;2689;50.954;7.116;2024-02-21T01:50:54;9.70;99.90
5334;DHT22;2689;50.954;7.116;2024-02-21T01:53:22;9.80;99.90
5334;DHT22;2689;50.954;7.116;2024-02-21T01:55:49;9.80;99.90
5334;DHT22;2689;50.954;7.116;2024-02-21T01:58:16;9.80;99.90
5334;DHT22;2689;50.954;7.116;2024-02-21T02:00:46;9.70;99.90
5334;DHT22;2689;50.954;7.116;2024-02-21T02:03:13;9.70;99.90
5334;DHT22;2689;50.954;7.116;2024-02-21T02:05:43;9.70;99.90
5334;DHT22;2689;50.954;7.116;2024-02-21T02:08:10;9.70;99.90
5334;DHT22;2689;50.954;7.116;2024-02-21T02:10:37;9.70;99.90
5334;DHT22;2689;50.954;7.116;2024-02-21T02:13:04;9.60;99.90
5334;DHT22;2689;50.954;7.116;2024-02-21T02:15:38;9.60;99.90
5334;DHT22;2689;50.954;7.116;2024-02-21T02:18:06;9.50;99.90
5334;DHT22;2689;50.954;7.116;2024-02-21T02:20:33;9.40;99.90
5334;DHT22;2689;50.954;7.116;2024-02-21T02:23:02;9.40;99.90
5334;DHT22;2689;50.954;7.116;2024-02-21T02:25:34;9.40;99.90
5334;DHT22;2689;50.954;7.116;2024-02-21T02:28:01;9.50;99.90
5334;DHT22;2689;50.954;7.116;2024-02-21T02:30:28;9.50;99.90
5334;DHT22;2689;50.954;7.116;2024-02-21T02:32:55;9.50;99.90
5334;DHT22;2689;50.954;7.116;2024-02-21T02:35:22;9.40;99.90
5334;DHT22;2689;50.954;7.116;2024-02-21T02:37:49;9.40;99.90
5334;DHT22;2689;50.954;7.116;2024-02-21T02:40:16;9.50;99.90
5334;DHT22;2689;50.954;7.116;2024-02-21T02:42:44;9.50;99.90
5334;DHT22;2689;50.954;7.116;2024-02-21T02:45:11;9.50;99.90
5334;DHT22;2689;50.954;7.116;2024-02-21T02:47:39;9.50;99.90
5334;DHT22;2689;50.954;7.116;2024-02-21T02:50:07;9.50;99.90
5334;DHT22;2689;50.954;7.116;2024-02-21T02:52:34;9.50;99.90
5334;DHT22;2689;50.954;7.116;2024-02-21T02:55:00;9.50;99.90
5334;DHT22;2689;50.954;7.116;2024-02-21T02:57:27;9.40;99.90
5334;DHT22;2689;50.954;7.116;2024-02-21T02:59:56;9.50;99.90
5334;DHT22;2689;50.954;7.116;2024-02-21T03:02:22;9.50;99.90
5334;DHT22;2689;50.954;7.116;2024-02-21T03:04:49;9.50;99.90
5334;DHT22;2689;50.954;7.116;2024-02-21T03:07:16;9.50;99.90
5334;DHT22;2689;50.954;7.116;2024-02-21T03:09:43;9.50;99.90
5334;DHT22;2689;50.954;7.116;2024-02-21T03:12:10;9.50;99.90
5334;DHT22;2689;50.954;7.116;2024-02-21T03:14:37;9.50;99.90
5334;DHT22;2689;50.954;7.116;2024-02-21T03:17:05;9.50;99.90
5334;DHT22;2689;50.954;7.116;2024-02-21T03:19:32;9.50;99.90
5334;DHT22;2689;50.954;7.116;2024-02-21T03:21:58;9.50;99.90
5334;DHT22;2689;50.954;7.116;2024-02-21T03:24:25;9.50;99.90
5334;DHT22;2689;50.954;7.116;2024-02-21T03:26:52;9.50;99.90
5334;DHT22;2689;50.954;7.116;2024-02-21T03:29:19;9.40;99.90
5334;DHT22;2689;50.954;7.116;2024-02-21T03:31:45;9.40;99.90
5334;DHT22;2689;50.954;7.116;2024-02-21T03:34:13;9.40;99.90
5334;DHT22;2689;50.954;7.116;2024-02-21T03:36:40;9.50;99.90
5334;DHT22;2689;50.954;7.116;2024-02-21T03:39:07;9.50;99.90
5334;DHT22;2689;50.954;7.116;2024-02-21T03:41:34;9.40;99.90
5334;DHT22;2689;50.954;7.116;2024-02-21T03:44:01;9.40;99.90
5334;DHT22;2689;50.954;7.116;2024-02-21T03:46:28;9.40;99.90
5334;DHT22;2689;50.954;7.116;2024-02-21T03:48:55;9.40;99.90
5334;DHT22;2689;50.954;7.116;2024-02-21T03:51:23;9.50;99.90
5334;DHT22;2689;50.954;7.116;2024-02-21T03:53:50;9.40;99.90
5334;DHT22;2689;50.954;7.116;2024-02-21T03:56:17;9.40;99.90
5334;DHT22;2689;50.954;7.116;2024-02-21T03:58:44;9.40;99.90
5334;DHT22;2689;50.954;7.116;2024-02-21T04:01:11;9.40;99.90
5334;DHT22;2689;50.954;7.116;2024-02-21T04:03:38;9.40;99.90
5334;DHT22;2689;50.954;7.116;2024-02-21T04:06:04;9.40;99.90
5334;DHT22;2689;50.954;7.116;2024-02-21T04:08:33;9.40;99.90
5334;DHT22;2689;50.954;7.116;2024-02-21T04:10:59;9.50;99.90
5334;DHT22;2689;50.954;7.116;2024-02-21T04:13:26;9.40;99.90
5334;DHT22;2689;50.954;7.116;2024-02-21T04:15:53;9.40;99.90
5334;DHT22;2689;50.954;7.116;2024-02-21T04:18:20;9.40;99.90
5334;DHT22;2689;50.954;7.116;2024-02-21T04:20:47;9.40;99.90
5334;DHT22;2689;50.954;7.116;2024-02-21T04:23:14;9.40;99.90
5334;DHT22;2689;50.954;7.116;2024-02-21T04:25:42;9.30;99.90
5334;DHT22;2689;50.954;7.116;2024-02-21T04:28:09;9.40;99.90
5334;DHT22;2689;50.954;7.116;2024-02-21T04:30:35;9.30;99.90
5334;DHT22;2689;50.954;7.116;2024-02-21T04:33:03;9.40;99.90
5334;DHT22;2689;50.954;7.116;2024-02-21T04:35:29;9.30;99.90
5334;DHT22;2689;50.954;7.116;2024-02-21T04:37:56;9.30;99.90
5334;DHT22;2689;50.954;7.116;2024-02-21T04:40:23;9.30;99.90
5334;DHT22;2689;50.954;7.116;2024-02-21T04:42:51;9.30;99.90
5334;DHT22;2689;50.954;7.116;2024-02-21T04:45:18;9.30;99.90
5334;DHT22;2689;50.954;7.116;2024-02-21T04:47:44;9.30;99.90
5334;DHT22;2689;50.954;7.116;2024-02-21T04:50:11;9.20;99.90
5334;DHT22;2689;50.954;7.116;2024-02-21T04:52:38;9.20;99.90
5334;DHT22;2689;50.954;7.116;2024-02-21T04:55:05;9.20;99.90
5334;DHT22;2689;50.954;7.116;2024-02-21T04:57:32;9.30;99.90
5334;DHT22;2689;50.954;7.116;2024-02-21T05:00:01;9.30;99.90
5334;DHT22;2689;50.954;7.116;2024-02-21T05:02:29;9.40;99.90
5334;DHT22;2689;50.954;7.116;2024-02-21T05:04:55;9.40;99.90
5334;DHT22;2689;50.954;7.116;2024-02-21T05:07:22;9.40;99.90
5334;DHT22;2689;50.954;7.116;2024-02-21T05:09:49;9.50;99.90
5334;DHT22;2689;50.954;7.116;2024-02-21T05:12:16;9.50;99.90
5334;DHT22;2689;50.954;7.116;2024-02-21T05:14:43;9.50;99.90
5334;DHT22;2689;50.954;7.116;2024-02-21T05:17:11;9.50;99.90
5334;DHT22;2689;50.954;7.116;2024-02-21T05:19:38;9.40;99.90
5334;DHT22;2689;50.954;7.116;2024-02-21T05:22:04;9.30;99.90
5334;DHT22;2689;50.954;7.116;2024-02-21T05:24:31;9.40;99.90
5334;DHT22;2689;50.954;7.116;2024-02-21T05:26:58;9.40;99.90
5334;DHT22;2689;50.954;7.116;2024-02-21T05:29:25;9.30;99.90
5334;DHT22;2689;50.954;7.116;2024-02-21T05:31:56;9.40;99.90
5334;DHT22;2689;50.954;7.116;2024-02-21T05:34:24;9.40;99.90
5334;DHT22;2689;50.954;7.116;2024-02-21T05:36:51;9.30;99.90
5334;DHT22;2689;50.954;7.116;2024-02-21T05:39:18;9.20;99.90
5334;DHT22;2689;50.954;7.116;2024-02-21T05:41:45;9.20;99.90
5334;DHT22;2689;50.954;7.116;2024-02-21T05:44:12;9.20;99.90
5334;DHT22;2689;50.954;7.116;2024-02-21T05:46:39;9.20;99.90
5334;DHT22;2689;50.954;7.116;2024-02-21T05:49:05;9.30;99.90
5334;DHT22;2689;50.954;7.116;2024-02-21T05:51:34;9.30;99.90
5334;DHT22;2689;50.954;7.116;2024-02-21T05:54:01;9.30;99.90
5334;DHT22;2689;50.954;7.116;2024-02-21T05:56:28;9.30;99.90
5334;DHT22;2689;50.954;7.116;2024-02-21T05:58:55;9.30;99.90
5334;DHT22;2689;50.954;7.116;2024-02-21T06:01:22;9.30;99.90
5334;DHT22;2689;50.954;7.116;2024-02-21T06:03:48;9.30;99.90
5334;DHT22;2689;50.954;7.116;2024-02-21T06:06:15;9.40;99.90
5334;DHT22;2689;50.954;7.116;2024-02-21T06:08:44;9.40;99.90
5334;DHT22;2689;50.954;7.116;2024-02-21T06:11:10;9.40;99.90
5334;DHT22;2689;50.954;7.116;2024-02-21T06:13:38;9.30;99.90
5334;DHT22;2689;50.954;7.116;2024-02-21T06:16:06;9.30;99.90
5334;DHT22;2689;50.954;7.116;2024-02-21T06:18:36;9.30;99.90
5334;DHT22;2689;50.954;7.116;2024-02-21T06:21:03;9.40;99.90
5334;DHT22;2689;50.954;7.116;2024-02-21T06:23:30;9.40;99.90
5334;DHT22;2689;50.954;7.116;2024-02-21T06:25:58;9.30;99.90
5334;DHT22;2689;50.954;7.116;2024-02-21T06:28:25;9.40;99.90
5334;DHT22;2689;50.954;7.116;2024-02-21T06:30:52;9.30;99.90
5334;DHT22;2689;50.954;7.116;2024-02-21T06:33:19;9.30;99.90
5334;DHT22;2689;50.954;7.116;2024-02-21T06:35:50;9.30;99.90
5334;DHT22;2689;50.954;7.116;2024-02-21T06:38:18;9.40;99.90
5334;DHT22;2689;50.954;7.116;2024-02-21T06:40:45;9.40;99.90
5334;DHT22;2689;50.954;7.116;2024-02-21T06:43:17;9.40;99.90
5334;DHT22;2689;50.954;7.116;2024-02-21T06:45:45;9.40;99.90
5334;DHT22;2689;50.954;7.116;2024-02-21T06:48:16;9.40;99.90
5334;DHT22;2689;50.954;7.116;2024-02-21T06:50:43;9.40;99.90
5334;DHT22;2689;50.954;7.116;2024-02-21T06:53:10;9.40;99.90
5334;DHT22;2689;50.954;7.116;2024-02-21T06:55:37;9.40;99.90
5334;DHT22;2689;50.954;7.116;2024-02-21T06:58:03;9.40;99.90
5334;DHT22;2689;50.954;7.116;2024-02-21T07:00:32;9.40;99.90
5334;DHT22;2689;50.954;7.116;2024-02-21T07:02:58;9.40;99.90
5334;DHT22;2689;50.954;7.116;2024-02-21T07:05:25;9.40;99.90
5334;DHT22;2689;50.954;7.116;2024-02-21T07:07:52;9.40;99.90
5334;DHT22;2689;50.954;7.116;2024-02-21T07:10:18;9.30;99.90
5334;DHT22;2689;50.954;7.116;2024-02-21T07:12:45;9.40;99.90
5334;DHT22;2689;50.954;7.116;2024-02-21T07:15:12;9.40;99.90
5334;DHT22;2689;50.954;7.116;2024-02-21T07:17:40;9.40;99.90
5334;DHT22;2689;50.954;7.116;2024-02-21T07:20:08;9.40;99.90
5334;DHT22;2689;50.954;7.116;2024-02-21T07:22:35;9.40;99.90
5334;DHT22;2689;50.954;7.116;2024-02-21T07:25:02;9.40;99.90
5334;DHT22;2689;50.954;7.116;2024-02-21T07:27:28;9.50;99.90
5334;DHT22;2689;50.954;7.116;2024-02-21T07:29:57;9.50;99.90
5334;DHT22;2689;50.954;7.116;2024-02-21T07:32:24;9.50;99.90
5334;DHT22;2689;50.954;7.116;2024-02-21T07:34:52;9.50;99.90
5334;DHT22;2689;50.954;7.116;2024-02-21T07:37:19;9.60;99.90
5334;DHT22;2689;50.954;7.116;2024-02-21T07:39:46;9.60;99.90
5334;DHT22;2689;50.954;7.116;2024-02-21T07:42:13;9.50;99.90
5334;DHT22;2689;50.954;7.116;2024-02-21T07:44:41;9.50;99.90
5334;DHT22;2689;50.954;7.116;2024-02-21T07:47:08;9.50;99.90
5334;DHT22;2689;50.954;7.116;2024-02-21T07:49:41;9.40;99.90
5334;DHT22;2689;50.954;7.116;2024-02-21T07:52:09;9.40;99.90
5334;DHT22;2689;50.954;7.116;2024-02-21T07:54:36;9.50;99.90
5334;DHT22;2689;50.954;7.116;2024-02-21T07:57:03;9.50;99.90
5334;DHT22;2689;50.954;7.116;2024-02-21T07:59:30;9.50;99.90
5334;DHT22;2689;50.954;7.116;2024-02-21T08:01:57;9.50;99.90
5334;DHT22;2689;50.954;7.116;2024-02-21T08:04:24;9.50;99.90
5334;DHT22;2689;50.954;7.116;2024-02-21T08:06:52;9.50;99.90
5334;DHT22;2689;50.954;7.116;2024-02-21T08:09:22;9.50;99.90
5334;DHT22;2689;50.954;7.116;2024-02-21T08:11:49;9.50;99.90
5334;DHT22;2689;50.954;7.116;2024-02-21T08:14:16;9.50;99.90
5334;DHT22;2689;50.954;7.116;2024-02-21T08:16:43;9.40;99.90
5334;DHT22;2689;50.954;7.116;2024-02-21T08:19:10;9.40;99.90
5334;DHT22;2689;50.954;7.116;2024-02-21T08:21:37;9.40;99.90
5334;DHT22;2689;50.954;7.116;2024-02-21T08:24:04;9.40;99.90
5334;DHT22;2689;50.954;7.116;2024-02-21T08:26:33;9.40;99.90
5334;DHT22;2689;50.954;7.116;2024-02-21T08:29:01;9.40;99.90
5334;DHT22;2689;50.954;7.116;2024-02-21T08:31:28;9.40;99.90
5334;DHT22;2689;50.954;7.116;2024-02-21T08:33:57;9.40;99.90
5334;DHT22;2689;50.954;7.116;2024-02-21T08:36:28;9.40;99.90
5334;DHT22;2689;50.954;7.116;2024-02-21T08:38:55;9.50;99.90
5334;DHT22;2689;50.954;7.116;2024-02-21T08:41:22;9.40;99.90
5334;DHT22;2689;50.954;7.116;2024-02-21T08:43:51;9.50;99.90
5334;DHT22;2689;50.954;7.116;2024-02-21T08:46:19;9.50;99.90
5334;DHT22;2689;50.954;7.116;2024-02-21T08:48:46;9.60;99.90
5334;DHT22;2689;50.954;7.116;2024-02-21T08:51:13;9.60;99.90
5334;DHT22;2689;50.954;7.116;2024-02-21T08:53:40;9.70;99.90
5334;DHT22;2689;50.954;7.116;2024-02-21T08:56:07;9.90;99.90
5334;DHT22;2689;50.954;7.116;2024-02-21T08:58:35;10.00;99.90
5334;DHT22;2689;50.954;7.116;2024-02-21T09:01:05;10.00;99.90
5334;DHT22;2689;50.954;7.116;2024-02-21T09:03:32;10.00;99.90
5334;DHT22;2689;50.954;7.116;2024-02-21T09:05:59;9.90;99.90
5334;DHT22;2689;50.954;7.116;2024-02-21T09:08:26;10.00;99.90
5334;DHT22;2689;50.954;7.116;2024-02-21T09:10:53;10.00;99.90
5334;DHT22;2689;50.954;7.116;2024-02-21T09:13:20;10.00;99.80
5334;DHT22;2689;50.954;7.116;2024-02-21T09:15:47;10.00;99.90
5334;DHT22;2689;50.954;7.116;2024-02-21T09:18:15;10.20;99.90
5334;DHT22;2689;50.954;7.116;2024-02-21T09:20:43;10.70;99.80
5334;DHT22;2689;50.954;7.116;2024-02-21T09:23:10;11.20;97.90
5334;DHT22;2689;50.954;7.116;2024-02-21T09:25:36;11.40;96.50
5334;DHT22;2689;50.954;7.116;2024-02-21T09:28:03;11.50;96.20
5334;DHT22;2689;50.954;7.116;2024-02-21T09:30:32;11.40;96.00
5334;DHT22;2689;50.954;7.116;2024-02-21T09:32:59;11.50;96.00
5334;DHT22;2689;50.954;7.116;2024-02-21T09:35:28;11.30;95.90
5334;DHT22;2689;50.954;7.116;2024-02-21T09:37:55;11.20;95.90
5334;DHT22;2689;50.954;7.116;2024-02-21T09:40:22;11.10;96.00
5334;DHT22;2689;50.954;7.116;2024-02-21T09:42:58;11.10;95.90
5334;DHT22;2689;50.954;7.116;2024-02-21T09:45:28;11.00;95.70
5334;DHT22;2689;50.954;7.116;2024-02-21T09:48:12;10.90;96.00
5334;DHT22;2689;50.954;7.116;2024-02-21T09:50:43;10.90;96.20
5334;DHT22;2689;50.954;7.116;2024-02-21T09:53:12;11.10;96.00
5334;DHT22;2689;50.954;7.116;2024-02-21T09:55:39;11.10;95.70
5334;DHT22;2689;50.954;7.116;2024-02-21T09:58:07;11.40;95.70
5334;DHT22;2689;50.954;7.116;2024-02-21T10:00:35;11.50;95.00
5334;DHT22;2689;50.954;7.116;2024-02-21T10:03:02;11.60;95.00
5334;DHT22;2689;50.954;7.116;2024-02-21T10:05:34;11.80;94.80
5334;DHT22;2689;50.954;7.116;2024-02-21T10:08:04;12.00;94.40
5334;DHT22;2689;50.954;7.116;2024-02-21T10:10:40;12.10;93.90
5334;DHT22;2689;50.954;7.116;2024-02-21T10:13:09;12.10;93.40
5334;DHT22;2689;50.954;7.116;2024-02-21T10:15:35;12.00;93.60
5334;DHT22;2689;50.954;7.116;2024-02-21T10:18:03;12.10;93.30
5334;DHT22;2689;50.954;7.116;2024-02-21T10:20:30;12.10;93.10
5334;DHT22;2689;50.954;7.116;2024-02-21T10:23:05;12.60;92.30
5334;DHT22;2689;50.954;7.116;2024-02-21T10:25:35;12.40;92.30
5334;DHT22;2689;50.954;7.116;2024-02-21T10:28:04;12.40;92.40
5334;DHT22;2689;50.954;7.116;2024-02-21T10:30:30;12.20;92.40
5334;DHT22;2689;50.954;7.116;2024-02-21T10:32:57;12.50;92.40
5334;DHT22;2689;50.954;7.116;2024-02-21T10:35:27;12.60;91.90
5334;DHT22;2689;50.954;7.116;2024-02-21T10:37:55;12.30;91.70
5334;DHT22;2689;50.954;7.116;2024-02-21T10:40:25;12.10;92.00
5334;DHT22;2689;50.954;7.116;2024-02-21T10:42:56;12.10;92.60
5334;DHT22;2689;50.954;7.116;2024-02-21T10:45:29;11.90;92.00
5334;DHT22;2689;50.954;7.116;2024-02-21T10:48:01;11.80;92.20
5334;DHT22;2689;50.954;7.116;2024-02-21T10:50:36;11.90;92.30
5334;DHT22;2689;50.954;7.116;2024-02-21T10:53:14;12.20;92.50
5334;DHT22;2689;50.954;7.116;2024-02-21T10:55:53;12.80;91.90
5334;DHT22;2689;50.954;7.116;2024-02-21T10:58:23;12.70;90.80
5334;DHT22;2689;50.954;7.116;2024-02-21T11:00:51;12.60;90.70
5334;DHT22;2689;50.954;7.116;2024-02-21T11:03:19;12.80;90.70
5334;DHT22;2689;50.954;7.116;2024-02-21T11:05:46;13.00;90.60
5334;DHT22;2689;50.954;7.116;2024-02-21T11:08:14;13.40;90.60
5334;DHT22;2689;50.954;7.116;2024-02-21T11:10:47;13.50;90.50
5334;DHT22;2689;50.954;7.116;2024-02-21T11:13:14;13.50;90.10
5334;DHT22;2689;50.954;7.116;2024-02-21T11:15:41;13.60;90.10
5334;DHT22;2689;50.954;7.116;2024-02-21T11:18:08;14.10;90.10
5334;DHT22;2689;50.954;7.116;2024-02-21T11:20:36;14.20;88.00
5334;DHT22;2689;50.954;7.116;2024-02-21T11:23:03;14.40;87.20
5334;DHT22;2689;50.954;7.116;2024-02-21T11:25:30;14.30;86.00
5334;DHT22;2689;50.954;7.116;2024-02-21T11:28:01;14.40;85.90
5334;DHT22;2689;50.954;7.116;2024-02-21T11:30:30;14.30;85.50
5334;DHT22;2689;50.954;7.116;2024-02-21T11:33:00;14.10;85.00
5334;DHT22;2689;50.954;7.116;2024-02-21T11:35:31;13.90;84.70
5334;DHT22;2689;50.954;7.116;2024-02-21T11:38:08;13.70;86.00
5334;DHT22;2689;50.954;7.116;2024-02-21T11:40:37;13.70;86.20
5334;DHT22;2689;50.954;7.116;2024-02-21T11:43:06;13.50;86.40
5334;DHT22;2689;50.954;7.116;2024-02-21T11:45:32;13.50;86.60
5334;DHT22;2689;50.954;7.116;2024-02-21T11:47:59;13.60;86.30
5334;DHT22;2689;50.954;7.116;2024-02-21T11:50:29;13.40;87.40
5334;DHT22;2689;50.954;7.116;2024-02-21T11:52:57;13.50;87.00
5334;DHT22;2689;50.954;7.116;2024-02-21T16:33:37;11.70;84.20
5334;DHT22;2689;50.954;7.116;2024-02-21T16:36:04;11.60;84.40
5334;DHT22;2689;50.954;7.116;2024-02-21T16:38:32;11.60;84.90
5334;DHT22;2689;50.954;7.116;2024-02-21T16:41:00;11.60;85.40
5334;DHT22;2689;50.954;7.116;2024-02-21T16:43:27;11.50;84.90
5334;DHT22;2689;50.954;7.116;2024-02-21T16:45:54;11.50;85.00
5334;DHT22;2689;50.954;7.116;2024-02-21T16:48:21;11.50;85.10
5334;DHT22;2689;50.954;7.116;2024-02-21T16:50:50;11.40;85.20
5334;DHT22;2689;50.954;7.116;2024-02-21T16:53:17;11.40;86.40
5334;DHT22;2689;50.954;7.116;2024-02-21T16:55:43;11.40;86.20
5334;DHT22;2689;50.954;7.116;2024-02-21T16:58:10;11.30;86.10
5334;DHT22;2689;50.954;7.116;2024-02-21T17:00:38;11.30;86.40
5334;DHT22;2689;50.954;7.116;2024-02-21T17:03:06;11.30;86.10
5334;DHT22;2689;50.954;7.116;2024-02-21T17:05:32;11.20;86.20
5334;DHT22;2689;50.954;7.116;2024-02-21T17:08:05;11.20;86.60
5334;DHT22;2689;50.954;7.116;2024-02-21T17:10:33;11.20;86.90
5334;DHT22;2689;50.954;7.116;2024-02-21T17:12:59;11.20;87.30
5334;DHT22;2689;50.954;7.116;2024-02-21T17:15:26;11.10;87.70
5334;DHT22;2689;50.954;7.116;2024-02-21T17:17:53;11.10;87.70
5334;DHT22;2689;50.954;7.116;2024-02-21T17:20:20;11.10;87.90
5334;DHT22;2689;50.954;7.116;2024-02-21T17:22:47;11.10;88.00
5334;DHT22;2689;50.954;7.116;2024-02-21T17:25:15;11.10;87.70
5334;DHT22;2689;50.954;7.116;2024-02-21T17:27:42;11.00;87.80
5334;DHT22;2689;50.954;7.116;2024-02-21T17:30:09;11.00;88.00
5334;DHT22;2689;50.954;7.116;2024-02-21T17:32:36;11.00;88.30
5334;DHT22;2689;50.954;7.116;2024-02-21T17:35:03;11.00;88.00
5334;DHT22;2689;50.954;7.116;2024-02-21T17:37:32;11.00;88.20
5334;DHT22;2689;50.954;7.116;2024-02-21T17:40:00;11.00;88.20
5334;DHT22;2689;50.954;7.116;2024-02-21T17:42:31;11.00;88.30
5334;DHT22;2689;50.954;7.116;2024-02-21T17:44:57;11.00;89.20
5334;DHT22;2689;50.954;7.116;2024-02-21T17:47:24;11.00;90.60
5334;DHT22;2689;50.954;7.116;2024-02-21T17:49:51;10.90;91.30
5334;DHT22;2689;50.954;7.116;2024-02-21T17:52:18;10.70;92.50
5334;DHT22;2689;50.954;7.116;2024-02-21T17:54:46;10.50;93.20
5334;DHT22;2689;50.954;7.116;2024-02-21T17:57:13;10.30;93.60
5334;DHT22;2689;50.954;7.116;2024-02-21T17:59:42;10.20;94.80
5334;DHT22;2689;50.954;7.116;2024-02-21T18:02:10;10.10;95.30
5334;DHT22;2689;50.954;7.116;2024-02-21T18:04:43;10.10;96.30
5334;DHT22;2689;50.954;7.116;2024-02-21T18:07:10;10.00;96.50
5334;DHT22;2689;50.954;7.116;2024-02-21T18:09:38;9.90;98.10
5334;DHT22;2689;50.954;7.116;2024-02-21T18:12:05;9.80;98.80
5334;DHT22;2689;50.954;7.116;2024-02-21T18:14:34;9.70;99.50
5334;DHT22;2689;50.954;7.116;2024-02-21T18:17:04;9.70;99.90
5334;DHT22;2689;50.954;7.116;2024-02-21T18:19:33;9.60;99.90
5334;DHT22;2689;50.954;7.116;2024-02-21T18:22:00;9.60;99.90
5334;DHT22;2689;50.954;7.116;2024-02-21T18:24:27;9.50;99.90
5334;DHT22;2689;50.954;7.116;2024-02-21T18:26:55;9.50;99.90
5334;DHT22;2689;50.954;7.116;2024-02-21T18:29:22;9.40;99.90
5334;DHT22;2689;50.954;7.116;2024-02-21T18:31:51;9.30;99.90
5334;DHT22;2689;50.954;7.116;2024-02-21T18:37:09;9.20;99.90
5334;DHT22;2689;50.954;7.116;2024-02-21T18:39:36;9.20;99.90
5334;DHT22;2689;50.954;7.116;2024-02-21T18:42:04;9.20;99.90
5334;DHT22;2689;50.954;7.116;2024-02-21T18:44:42;9.20;99.90
5334;DHT22;2689;50.954;7.116;2024-02-21T18:51:19;9.00;99.90
5334;DHT22;2689;50.954;7.116;2024-02-21T19:06:03;8.70;99.90
5334;DHT22;2689;50.954;7.116;2024-02-21T19:08:45;8.70;99.90
5334;DHT22;2689;50.954;7.116;2024-02-21T19:11:42;8.70;99.90
5334;DHT22;2689;50.954;7.116;2024-02-21T19:21:33;8.60;99.90
5334;DHT22;2689;50.954;7.116;2024-02-21T19:24:31;8.60;99.90
5334;DHT22;2689;50.954;7.116;2024-02-21T19:34:22;8.50;99.90
5334;DHT22;2689;50.954;7.116;2024-02-21T19:52:24;8.50;99.90
5334;DHT22;2689;50.954;7.116;2024-02-21T19:54:38;8.50;99.90
5334;DHT22;2689;50.954;7.116;2024-02-21T19:57:09;8.50;99.90
5334;DHT22;2689;50.954;7.116;2024-02-21T20:06:24;8.60;99.90
5334;DHT22;2689;50.954;7.116;2024-02-21T20:17:56;8.60;99.90
5334;DHT22;2689;50.954;7.116;2024-02-21T20:20:42;8.60;99.90
5334;DHT22;2689;50.954;7.116;2024-02-21T20:23:46;8.60;99.90
5334;DHT22;2689;50.954;7.116;2024-02-21T20:26:31;8.60;99.90
5334;DHT22;2689;50.954;7.116;2024-02-21T20:31:34;8.60;99.90
5334;DHT22;2689;50.954;7.116;2024-02-21T20:34:11;8.60;99.90
5334;DHT22;2689;50.954;7.116;2024-02-21T20:36:42;8.60;99.90
5334;DHT22;2689;50.954;7.116;2024-02-21T20:42:50;8.60;99.90
5334;DHT22;2689;50.954;7.116;2024-02-21T20:45:23;8.60;99.90
5334;DHT22;2689;50.954;7.116;2024-02-21T20:47:55;8.60;99.90
5334;DHT22;2689;50.954;7.116;2024-02-21T20:50:35;8.60;99.90
5334;DHT22;2689;50.954;7.116;2024-02-21T20:53:38;8.60;99.90
5334;DHT22;2689;50.954;7.116;2024-02-21T21:00:13;8.60;99.90
5334;DHT22;2689;50.954;7.116;2024-02-21T21:02:42;8.60;99.90
5334;DHT22;2689;50.954;7.116;2024-02-21T21:05:28;8.60;99.90
5334;DHT22;2689;50.954;7.116;2024-02-21T21:07:56;8.60;99.90
5334;DHT22;2689;50.954;7.116;2024-02-21T21:13:13;8.60;99.90
5334;DHT22;2689;50.954;7.116;2024-02-21T21:15:46;8.50;99.90
5334;DHT22;2689;50.954;7.116;2024-02-21T21:18:32;8.60;99.90
5334;DHT22;2689;50.954;7.116;2024-02-21T21:21:52;8.60;99.90
5334;DHT22;2689;50.954;7.116;2024-02-21T21:24:37;8.60;99.90
5334;DHT22;2689;50.954;7.116;2024-02-21T21:30:49;8.60;99.90
5334;DHT22;2689;50.954;7.116;2024-02-21T21:33:38;8.50;99.90
5334;DHT22;2689;50.954;7.116;2024-02-21T21:36:25;8.60;99.90
5334;DHT22;2689;50.954;7.116;2024-02-21T21:39:14;8.60;99.90
5334;DHT22;2689;50.954;7.116;2024-02-21T21:41:42;8.60;99.90
5334;DHT22;2689;50.954;7.116;2024-02-21T21:44:26;8.60;99.90
5334;DHT22;2689;50.954;7.116;2024-02-21T21:46:56;8.60;99.90
5334;DHT22;2689;50.954;7.116;2024-02-21T21:49:48;8.60;99.90
5334;DHT22;2689;50.954;7.116;2024-02-21T21:52:31;8.60;99.90
5334;DHT22;2689;50.954;7.116;2024-02-21T21:55:20;8.60;99.90
5334;DHT22;2689;50.954;7.116;2024-02-21T21:57:51;8.60;99.90
5334;DHT22;2689;50.954;7.116;2024-02-21T22:00:19;8.60;99.90
5334;DHT22;2689;50.954;7.116;2024-02-21T22:03:00;8.60;99.90
5334;DHT22;2689;50.954;7.116;2024-02-21T22:05:37;8.60;99.90
5334;DHT22;2689;50.954;7.116;2024-02-21T22:08:12;8.60;99.90
5334;DHT22;2689;50.954;7.116;2024-02-21T22:10:41;8.60;99.90
5334;DHT22;2689;50.954;7.116;2024-02-21T22:13:08;8.60;99.90
5334;DHT22;2689;50.954;7.116;2024-02-21T22:19:00;8.50;99.90
5334;DHT22;2689;50.954;7.116;2024-02-21T22:21:29;8.50;99.90
5334;DHT22;2689;50.954;7.116;2024-02-21T22:24:11;8.50;99.90
5334;DHT22;2689;50.954;7.116;2024-02-21T22:26:54;8.50;99.90
5334;DHT22;2689;50.954;7.116;2024-02-21T22:29:33;8.50;99.90
5334;DHT22;2689;50.954;7.116;2024-02-21T22:32:20;8.50;99.90
5334;DHT22;2689;50.954;7.116;2024-02-21T22:34:51;8.50;99.90
5334;DHT22;2689;50.954;7.116;2024-02-21T22:37:18;8.50;99.90
5334;DHT22;2689;50.954;7.116;2024-02-21T22:40:12;8.50;99.90
5334;DHT22;2689;50.954;7.116;2024-02-21T22:57:49;8.50;99.90
5334;DHT22;2689;50.954;7.116;2024-02-21T23:01:29;8.50;99.90
5334;DHT22;2689;50.954;7.116;2024-02-21T23:04:03;8.60;99.90
5334;DHT22;2689;50.954;7.116;2024-02-21T23:07:10;8.50;99.90
5334;DHT22;2689;50.954;7.116;2024-02-21T23:09:37;8.50;99.90
5334;DHT22;2689;50.954;7.116;2024-02-21T23:13:12;8.60;99.90
5334;DHT22;2689;50.954;7.116;2024-02-21T23:15:25;8.50;99.90
5334;DHT22;2689;50.954;7.116;2024-02-21T23:22:19;8.50;99.90
5334;DHT22;2689;50.954;7.116;2024-02-21T23:25:30;8.60;99.90
5334;DHT22;2689;50.954;7.116;2024-02-21T23:31:48;8.60;99.90